sensor_id;sensor_type;location;lat;lon;timestamp;P1;durP1;ratioP1;P2;durP2;ratioP2
4527;SDS011;62320;51.520;6.818;2022-11-27T00:02:03;11.23;;;3.13;;
4527;SDS011;62320;51.520;6.818;2022-11-27T00:12:04;13.52;;;3.67;;
4527;SDS011;62320;51.520;6.818;2022-11-27T00:22:06;10.23;;;2.60;;
4527;SDS011;62320;51.520;6.818;2022-11-27T00:32:07;9.87;;;1.97;;
4527;SDS011;62320;51.520;6.818;2022-11-27T00:42:09;9.63;;;2.63;;
4527;SDS011;62320;51.520;6.818;2022-11-27T00:52:10;11.75;;;2.60;;
4527;SDS011;62320;51.520;6.818;2022-11-27T01:02:11;12.63;;;2.50;;
4527;SDS011;62320;51.520;6.818;2022-11-27T01:12:13;7.70;;;2.47;;
4527;SDS011;62320;51.520;6.818;2022-11-27T01:22:14;8.40;;;2.55;;
4527;SDS011;62320;51.520;6.818;2022-11-27T01:32:15;7.43;;;1.93;;
4527;SDS011;62320;51.520;6.818;2022-11-27T01:42:17;9.17;;;2.60;;
4527;SDS011;62320;51.520;6.818;2022-11-27T01:52:19;9.90;;;2.63;;
4527;SDS011;62320;51.520;6.818;2022-11-27T02:02:25;7.30;;;2.55;;
4527;SDS011;62320;51.520;6.818;2022-11-27T02:12:31;7.67;;;2.30;;
4527;SDS011;62320;51.520;6.818;2022-11-27T02:22:52;9.27;;;2.33;;
4527;SDS011;62320;51.520;6.818;2022-11-27T02:33:14;7.10;;;2.50;;
4527;SDS011;62320;51.520;6.818;2022-11-27T02:43:21;10.03;;;3.10;;
4527;SDS011;62320;51.520;6.818;2022-11-27T02:53:30;9.50;;;3.13;;
4527;SDS011;62320;51.520;6.818;2022-11-27T03:03:39;8.68;;;2.60;;
4527;SDS011;62320;51.520;6.818;2022-11-27T03:13:45;11.20;;;2.47;;
4527;SDS011;62320;51.520;6.818;2022-11-27T03:23:51;9.67;;;2.70;;
4527;SDS011;62320;51.520;6.818;2022-11-27T03:33:53;10.75;;;4.50;;
4527;SDS011;62320;51.520;6.818;2022-11-27T03:44:12;10.85;;;3.83;;
4527;SDS011;62320;51.520;6.818;2022-11-27T04:04:45;9.23;;;3.07;;
4527;SDS011;62320;51.520;6.818;2022-11-27T04:14:46;7.63;;;2.75;;
4527;SDS011;62320;51.520;6.818;2022-11-27T04:24:48;11.50;;;3.30;;
4527;SDS011;62320;51.520;6.818;2022-11-27T04:34:49;9.70;;;3.37;;
4527;SDS011;62320;51.520;6.818;2022-11-27T04:44:50;12.00;;;3.80;;
4527;SDS011;62320;51.520;6.818;2022-11-27T04:54:52;11.20;;;3.50;;
4527;SDS011;62320;51.520;6.818;2022-11-27T05:05:00;12.87;;;3.63;;
4527;SDS011;62320;51.520;6.818;2022-11-27T05:15:01;11.15;;;4.00;;
4527;SDS011;62320;51.520;6.818;2022-11-27T05:25:05;12.57;;;4.70;;
4527;SDS011;62320;51.520;6.818;2022-11-27T05:35:06;11.23;;;3.63;;
4527;SDS011;62320;51.520;6.818;2022-11-27T05:45:08;11.23;;;3.73;;
4527;SDS011;62320;51.520;6.818;2022-11-27T05:55:10;12.60;;;4.28;;
4527;SDS011;62320;51.520;6.818;2022-11-27T06:05:11;9.27;;;3.73;;
4527;SDS011;62320;51.520;6.818;2022-11-27T06:15:13;9.70;;;3.50;;
4527;SDS011;62320;51.520;6.818;2022-11-27T06:25:15;10.45;;;3.60;;
4527;SDS011;62320;51.520;6.818;2022-11-27T06:35:17;9.00;;;3.37;;
4527;SDS011;62320;51.520;6.818;2022-11-27T06:45:18;10.33;;;3.93;;
4527;SDS011;62320;51.520;6.818;2022-11-27T06:55:19;10.52;;;3.80;;
4527;SDS011;62320;51.520;6.818;2022-11-27T07:05:21;12.35;;;3.55;;
4527;SDS011;62320;51.520;6.818;2022-11-27T07:15:24;11.00;;;3.53;;
4527;SDS011;62320;51.520;6.818;2022-11-27T07:25:26;9.10;;;3.57;;
4527;SDS011;62320;51.520;6.818;2022-11-27T07:35:27;9.77;;;3.72;;
4527;SDS011;62320;51.520;6.818;2022-11-27T07:45:28;13.33;;;3.50;;
4527;SDS011;62320;51.520;6.818;2022-11-27T07:55:30;7.77;;;3.20;;
4527;SDS011;62320;51.520;6.818;2022-11-27T08:05:36;8.52;;;2.78;;
4527;SDS011;62320;51.520;6.818;2022-11-27T08:15:38;9.03;;;3.07;;
4527;SDS011;62320;51.520;6.818;2022-11-27T08:25:39;11.73;;;3.33;;
4527;SDS011;62320;51.520;6.818;2022-11-27T08:35:46;10.50;;;3.30;;
4527;SDS011;62320;51.520;6.818;2022-11-27T08:45:48;7.75;;;2.97;;
4527;SDS011;62320;51.520;6.818;2022-11-27T08:55:50;7.53;;;2.70;;
4527;SDS011;62320;51.520;6.818;2022-11-27T09:05:51;6.23;;;2.13;;
4527;SDS011;62320;51.520;6.818;2022-11-27T09:15:54;7.15;;;2.70;;
4527;SDS011;62320;51.520;6.818;2022-11-27T09:26:00;13.53;;;3.73;;
4527;SDS011;62320;51.520;6.818;2022-11-27T09:36:04;8.37;;;2.87;;
4527;SDS011;62320;51.520;6.818;2022-11-27T09:46:08;8.35;;;3.20;;
4527;SDS011;62320;51.520;6.818;2022-11-27T09:56:17;8.03;;;2.77;;
4527;SDS011;62320;51.520;6.818;2022-11-27T10:26:42;9.82;;;2.85;;
4527;SDS011;62320;51.520;6.818;2022-11-27T10:36:47;7.40;;;2.37;;
4527;SDS011;62320;51.520;6.818;2022-11-27T10:46:50;7.10;;;2.77;;
4527;SDS011;62320;51.520;6.818;2022-11-27T10:57:08;8.88;;;2.95;;
4527;SDS011;62320;51.520;6.818;2022-11-27T11:07:25;7.53;;;2.87;;
4527;SDS011;62320;51.520;6.818;2022-11-27T11:17:32;8.43;;;3.47;;
4527;SDS011;62320;51.520;6.818;2022-11-27T11:27:35;8.35;;;3.00;;
4527;SDS011;62320;51.520;6.818;2022-11-27T11:37:37;9.23;;;3.23;;
4527;SDS011;62320;51.520;6.818;2022-11-27T11:58:00;8.45;;;3.60;;
4527;SDS011;62320;51.520;6.818;2022-11-27T12:29:08;8.43;;;3.30;;
4527;SDS011;62320;51.520;6.818;2022-11-27T12:49:36;9.43;;;3.90;;
4527;SDS011;62320;51.520;6.818;2022-11-27T12:59:51;7.60;;;2.80;;
4527;SDS011;62320;51.520;6.818;2022-11-27T13:20:14;7.73;;;3.17;;
4527;SDS011;62320;51.520;6.818;2022-11-27T13:30:21;7.57;;;2.93;;
4527;SDS011;62320;51.520;6.818;2022-11-27T13:40:34;9.55;;;3.50;;
4527;SDS011;62320;51.520;6.818;2022-11-27T13:50:42;7.28;;;2.70;;
4527;SDS011;62320;51.520;6.818;2022-11-27T14:00:45;8.23;;;2.70;;
4527;SDS011;62320;51.520;6.818;2022-11-27T14:10:48;7.57;;;2.93;;
4527;SDS011;62320;51.520;6.818;2022-11-27T14:20:59;9.55;;;3.47;;
4527;SDS011;62320;51.520;6.818;2022-11-27T14:31:03;8.90;;;3.43;;
4527;SDS011;62320;51.520;6.818;2022-11-27T14:41:09;7.53;;;3.67;;
4527;SDS011;62320;51.520;6.818;2022-11-27T14:51:16;8.50;;;3.35;;
4527;SDS011;62320;51.520;6.818;2022-11-27T15:01:24;7.47;;;3.23;;
4527;SDS011;62320;51.520;6.818;2022-11-27T15:11:31;8.70;;;3.57;;
4527;SDS011;62320;51.520;6.818;2022-11-27T15:21:53;8.02;;;3.33;;
4527;SDS011;62320;51.520;6.818;2022-11-27T15:31:54;7.50;;;2.92;;
4527;SDS011;62320;51.520;6.818;2022-11-27T15:41:57;6.73;;;2.77;;
4527;SDS011;62320;51.520;6.818;2022-11-27T15:52:03;9.20;;;3.47;;
4527;SDS011;62320;51.520;6.818;2022-11-27T16:02:04;6.47;;;2.78;;
4527;SDS011;62320;51.520;6.818;2022-11-27T16:12:06;7.60;;;3.07;;
4527;SDS011;62320;51.520;6.818;2022-11-27T16:22:08;7.17;;;2.67;;
4527;SDS011;62320;51.520;6.818;2022-11-27T16:32:09;7.57;;;3.03;;
4527;SDS011;62320;51.520;6.818;2022-11-27T16:42:11;8.73;;;2.60;;
4527;SDS011;62320;51.520;6.818;2022-11-27T16:52:12;7.37;;;3.13;;
4527;SDS011;62320;51.520;6.818;2022-11-27T17:02:14;8.07;;;3.28;;
4527;SDS011;62320;51.520;6.818;2022-11-27T17:12:15;8.43;;;3.92;;
4527;SDS011;62320;51.520;6.818;2022-11-27T17:22:17;7.23;;;3.20;;
4527;SDS011;62320;51.520;6.818;2022-11-27T17:32:18;7.93;;;3.33;;
4527;SDS011;62320;51.520;6.818;2022-11-27T17:42:19;8.52;;;3.25;;
4527;SDS011;62320;51.520;6.818;2022-11-27T17:52:23;8.73;;;3.23;;
4527;SDS011;62320;51.520;6.818;2022-11-27T18:02:24;9.60;;;3.33;;
4527;SDS011;62320;51.520;6.818;2022-11-27T18:12:26;7.28;;;3.38;;
4527;SDS011;62320;51.520;6.818;2022-11-27T18:22:27;7.33;;;3.30;;
4527;SDS011;62320;51.520;6.818;2022-11-27T18:32:29;8.87;;;3.30;;
4527;SDS011;62320;51.520;6.818;2022-11-27T18:42:30;7.10;;;3.03;;
4527;SDS011;62320;51.520;6.818;2022-11-27T18:52:33;7.05;;;3.08;;
4527;SDS011;62320;51.520;6.818;2022-11-27T19:02:34;7.13;;;3.33;;
4527;SDS011;62320;51.520;6.818;2022-11-27T19:12:36;8.63;;;3.27;;
4527;SDS011;62320;51.520;6.818;2022-11-27T19:22:37;7.38;;;3.05;;
4527;SDS011;62320;51.520;6.818;2022-11-27T19:32:39;6.53;;;2.60;;
4527;SDS011;62320;51.520;6.818;2022-11-27T19:42:40;7.10;;;2.90;;
4527;SDS011;62320;51.520;6.818;2022-11-27T19:52:41;7.68;;;3.05;;
4527;SDS011;62320;51.520;6.818;2022-11-27T20:02:43;6.63;;;2.80;;
4527;SDS011;62320;51.520;6.818;2022-11-27T20:12:45;6.60;;;2.83;;
4527;SDS011;62320;51.520;6.818;2022-11-27T20:22:46;8.15;;;3.47;;
4527;SDS011;62320;51.520;6.818;2022-11-27T20:32:48;6.55;;;2.35;;
4527;SDS011;62320;51.520;6.818;2022-11-27T20:42:49;7.90;;;3.10;;
4527;SDS011;62320;51.520;6.818;2022-11-27T20:52:50;6.60;;;3.00;;
4527;SDS011;62320;51.520;6.818;2022-11-27T21:02:52;7.85;;;3.28;;
4527;SDS011;62320;51.520;6.818;2022-11-27T21:12:53;8.33;;;3.33;;
4527;SDS011;62320;51.520;6.818;2022-11-27T21:22:55;8.43;;;3.40;;
4527;SDS011;62320;51.520;6.818;2022-11-27T21:32:56;8.02;;;3.40;;
4527;SDS011;62320;51.520;6.818;2022-11-27T21:42:58;8.30;;;3.70;;
4527;SDS011;62320;51.520;6.818;2022-11-27T21:52:59;7.53;;;3.80;;
4527;SDS011;62320;51.520;6.818;2022-11-27T22:03:00;10.20;;;4.10;;
4527;SDS011;62320;51.520;6.818;2022-11-27T22:13:02;8.95;;;3.63;;
4527;SDS011;62320;51.520;6.818;2022-11-27T22:23:04;8.70;;;3.73;;
4527;SDS011;62320;51.520;6.818;2022-11-27T22:33:05;9.80;;;4.20;;
4527;SDS011;62320;51.520;6.818;2022-11-27T22:43:07;9.90;;;3.90;;
4527;SDS011;62320;51.520;6.818;2022-11-27T22:53:08;9.17;;;4.73;;
4527;SDS011;62320;51.520;6.818;2022-11-27T23:03:09;8.70;;;4.00;;
4527;SDS011;62320;51.520;6.818;2022-11-27T23:13:11;8.45;;;3.70;;
4527;SDS011;62320;51.520;6.818;2022-11-27T23:23:13;7.93;;;3.80;;
4527;SDS011;62320;51.520;6.818;2022-11-27T23:33:14;9.53;;;4.47;;
4527;SDS011;62320;51.520;6.818;2022-11-27T23:43:16;9.70;;;4.47;;
4527;SDS011;62320;51.520;6.818;2022-11-27T23:53:17;9.60;;;4.78;;
